Harrison, Michigan
Current Conditions -  °F | °C
As of 11:39 AM on Wednesday 22 Oct 2014 (Local Time) from KHTL Reporting Station
Overcast Overcast  
Wind Chill:   Ceiling: 1500
Heat Index:   Visibility: 10mi
Dew Point:   Wind: 6mph
Humidity: 79%   Direction: 20°NNE
Pressure: 30.4"   Gusts: NA
Location:  44.02°N, 84.8°W
Report Text: KHTL 221539Z AUTO 02005KT 10SM OVC015 04/01 A3040 RMK AO2 T00390006
Loading
Personal Weather Stations






























Interactive Weather Map
Tropical Storm Tracking
New forecast layout! Learn more

10-Day Weather Forecast

Advertisements
Track Severe Weather on mobile